Time;durP1;ratioP1;P1;durP2;ratioP2;P2;SDS_P1;SDS_P2;PMS_P1;PMS_P2;Temp;Humidity;BMP_temperature;BMP_pressure;BME280_temperature;BME280_humidity;BME280_pressure;Samples;Min_cycle;Max_cycle;Signal;HPM_P1;HPM_P2
2022/12/05 00:01:19;;;;;;;3.72;1.88;;;;;;;-0.49;70.16;103362.13;5064476;28;20051;-79
2022/12/05 00:03:47;;;;;;;2.22;1.35;;;;;;;-0.28;69.92;103404.69;5058424;28;20110;-80
2022/12/05 00:06:14;;;;;;;5.88;1.55;;;;;;;-0.27;70.01;103406.47;5063299;28;20554;-80
2022/12/05 00:08:42;;;;;;;3.38;1.75;;;;;;;-0.35;69.64;103394.78;5061117;28;20052;-81
2022/12/05 00:11:13;;;;;;;4.97;1.35;;;;;;;-0.30;69.42;103403.69;5061829;28;20052;-80
2022/12/05 00:13:40;;;;;;;4.05;1.52;;;;;;;-0.28;69.64;103404.69;5065235;28;20501;-80
2022/12/05 00:16:09;;;;;;;1.40;1.20;;;;;;;-0.32;69.69;103397.53;5065552;28;20060;-80
2022/12/05 00:18:35;;;;;;;2.15;1.25;;;;;;;-0.28;69.47;103409.81;5060739;28;20044;-80
2022/12/05 00:21:02;;;;;;;2.85;1.15;;;;;;;-0.29;69.74;103404.56;5058174;28;20098;-80
2022/12/05 00:23:29;;;;;;;2.22;1.55;;;;;;;-0.31;69.91;103414.75;5062377;28;20045;-80
2022/12/05 00:25:57;;;;;;;3.15;1.25;;;;;;;-0.31;69.98;103413.88;5069707;28;20558;-80
2022/12/05 00:28:24;;;;;;;2.13;1.30;;;;;;;-0.39;69.80;103397.94;5062547;28;20091;-80
2022/12/05 00:30:51;;;;;;;3.50;1.85;;;;;;;-0.32;70.34;103402.69;5064962;28;20083;-80
2022/12/05 00:33:18;;;;;;;3.67;1.65;;;;;;;-0.32;69.74;103406.94;5073246;28;20052;-80
2022/12/05 00:35:44;;;;;;;4.28;1.77;;;;;;;-0.42;69.45;103382.31;5067284;28;20045;-80
2022/12/05 00:38:11;;;;;;;1.77;1.38;;;;;;;-0.34;69.40;103396.56;5061865;28;20045;-80
2022/12/05 00:40:38;;;;;;;2.45;1.25;;;;;;;-0.33;69.56;103395.78;5058871;28;20068;-80
2022/12/05 00:43:06;;;;;;;2.50;1.23;;;;;;;-0.39;69.42;103385.09;5058009;28;20487;-81
2022/12/05 00:45:34;;;;;;;3.25;1.30;;;;;;;-0.38;70.21;103392.00;5067084;28;20056;-81
2022/12/05 00:48:00;;;;;;;2.90;2.30;;;;;;;-0.37;69.62;103393.81;5064935;28;20056;-81
2022/12/05 00:50:27;;;;;;;1.40;0.80;;;;;;;-0.36;69.38;103382.72;5064914;28;20526;-81
2022/12/05 00:52:54;;;;;;;3.00;0.90;;;;;;;-0.37;69.30;103385.19;5067707;28;20048;-81
2022/12/05 00:55:21;;;;;;;0.93;0.60;;;;;;;-0.42;70.07;103379.75;5063678;28;20044;-81
2022/12/05 00:57:47;;;;;;;1.15;0.70;;;;;;;-0.42;69.83;103379.75;5063820;28;20056;-81
2022/12/05 01:00:22;;;;;;;1.33;0.70;;;;;;;-0.50;69.37;103373.19;5066364;28;20174;-80
2022/12/05 01:02:48;;;;;;;2.30;1.15;;;;;;;-0.47;69.47;103383.66;5053528;28;20427;-80
2022/12/05 01:05:15;;;;;;;2.47;0.77;;;;;;;-0.51;69.65;103374.00;5063329;28;20040;-80
2022/12/05 01:07:42;;;;;;;4.25;0.80;;;;;;;-0.49;69.34;103382.66;5061543;28;20040;-80
2022/12/05 01:10:09;;;;;;;2.47;0.80;;;;;;;-0.50;69.48;103386.91;5069653;28;20045;-80
2022/12/05 01:12:36;;;;;;;24.67;1.58;;;;;;;-0.51;69.40;103389.41;5066677;28;20515;-80
2022/12/05 01:15:04;;;;;;;1.42;0.90;;;;;;;-0.68;69.85;103363.44;5068976;28;20443;-80
2022/12/05 01:17:34;;;;;;;5.25;1.17;;;;;;;-0.63;69.88;103380.84;5069892;28;20450;-80
2022/12/05 01:20:01;;;;;;;1.85;0.95;;;;;;;-0.53;69.73;103396.09;5064189;28;20052;-80
2022/12/05 01:22:27;;;;;;;1.63;0.98;;;;;;;-0.63;69.18;103376.59;5065283;28;20047;-80
2022/12/05 01:24:54;;;;;;;1.60;0.77;;;;;;;-0.58;69.74;103372.66;5059027;28;20358;-80
2022/12/05 01:27:21;;;;;;;3.08;0.80;;;;;;;-0.56;69.77;103380.47;5058507;28;20044;-80
2022/12/05 01:29:48;;;;;;;1.85;0.95;;;;;;;-0.55;70.12;103389.94;5062245;28;20041;-80
2022/12/05 01:32:15;;;;;;;1.65;0.98;;;;;;;-0.55;69.49;103400.22;5061929;28;20488;-80
2022/12/05 01:34:43;;;;;;;8.38;1.10;;;;;;;-0.54;69.34;103399.44;5055990;28;20082;-82
2022/12/05 01:37:10;;;;;;;1.38;0.50;;;;;;;-0.57;69.70;103394.09;5058167;28;20049;-79
2022/12/05 01:39:37;;;;;;;2.00;0.80;;;;;;;-0.58;69.75;103384.63;5068979;28;20094;-80
2022/12/05 01:42:05;;;;;;;3.25;1.10;;;;;;;-0.62;69.61;103378.38;5068776;28;20048;-80
2022/12/05 01:45:02;;;;;;;1.52;0.73;;;;;;;-0.61;69.81;103374.13;5067392;28;20048;-80
2022/12/05 01:47:32;;;;;;;4.72;0.80;;;;;;;-0.63;69.12;103373.13;5060894;28;20049;-80
2022/12/05 01:50:01;;;;;;;1.58;0.60;;;;;;;-0.69;70.12;103363.31;5060386;28;20037;-80
2022/12/05 01:52:31;;;;;;;1.52;0.80;;;;;;;-0.64;69.93;103374.81;5061119;28;20048;-80
2022/12/05 01:55:02;;;;;;;2.67;1.42;;;;;;;-0.65;69.80;103367.03;5054876;28;20048;-80
2022/12/05 01:57:30;;;;;;;5.45;0.90;;;;;;;-0.68;69.85;103370.25;5061562;28;20077;-80
2022/12/05 02:00:04;;;;;;;1.80;0.90;;;;;;;-0.71;69.65;103365.81;5061655;28;20484;-80
2022/12/05 02:02:32;;;;;;;1.10;0.60;;;;;;;-0.68;69.38;103371.16;5068817;28;20472;-80
2022/12/05 02:05:05;;;;;;;1.63;0.77;;;;;;;-0.68;69.57;103365.13;5059671;28;20048;-80
2022/12/05 02:07:33;;;;;;;1.67;1.00;;;;;;;-0.74;69.47;103360.47;5061792;28;20785;-80
2022/12/05 02:10:00;;;;;;;1.42;0.80;;;;;;;-0.73;69.54;103367.38;5064901;28;20041;-80
2022/12/05 02:12:27;;;;;;;3.63;0.70;;;;;;;-0.82;69.45;103351.34;5059192;28;20070;-80
2022/12/05 02:15:08;;;;;;;1.42;0.73;;;;;;;-0.78;69.31;103358.44;5071540;28;20086;-80
2022/12/05 02:17:44;;;;;;;1.65;0.60;;;;;;;-0.77;69.81;103361.91;5064524;28;20041;-80
2022/12/05 02:20:33;;;;;;;5.75;0.80;;;;;;;-0.86;70.06;103335.59;5052971;28;20078;-79
2022/12/05 02:23:44;;;;;;;1.23;0.90;;;;;;;-0.77;69.26;103355.13;5056622;28;20500;-80
2022/12/05 02:26:55;;;;;;;7.50;1.20;;;;;;;-0.77;69.32;103354.19;5055796;28;20043;-80
2022/12/05 02:29:51;;;;;;;1.80;0.95;;;;;;;-0.82;69.44;103350.44;5049619;28;20103;-80
2022/12/05 02:32:30;;;;;;;1.10;0.80;;;;;;;-0.85;69.86;103346.00;5057561;28;20076;-79
2022/12/05 02:35:03;;;;;;;2.03;0.68;;;;;;;-0.78;70.21;103355.88;5062886;28;20045;-80
2022/12/05 02:37:37;;;;;;;1.42;0.80;;;;;;;-0.89;69.56;103337.97;5060757;28;20045;-80
2022/12/05 02:40:12;;;;;;;1.45;0.85;;;;;;;-0.78;69.76;103357.56;5059993;28;20049;-80
2022/12/05 02:42:46;;;;;;;1.70;1.00;;;;;;;-0.79;69.76;103354.13;5058561;28;20443;-80
2022/12/05 02:45:16;;;;;;;1.42;0.70;;;;;;;-0.85;69.71;103345.06;5056635;28;20048;-80
2022/12/05 02:47:47;;;;;;;8.38;0.70;;;;;;;-0.82;69.72;103346.22;5060425;28;20052;-80
2022/12/05 02:50:18;;;;;;;1.90;0.80;;;;;;;-0.82;70.12;103345.31;5054099;28;20784;-79
2022/12/05 02:52:48;;;;;;;3.88;0.90;;;;;;;-0.89;69.56;103333.72;5061766;28;20478;-80
2022/12/05 02:55:17;;;;;;;3.63;0.80;;;;;;;-0.83;69.43;103339.28;5057649;28;20056;-80
2022/12/05 02:57:51;;;;;;;1.70;0.90;;;;;;;-0.83;69.89;103341.84;5065909;28;20550;-80
2022/12/05 03:00:18;;;;;;;2.55;0.98;;;;;;;-0.84;69.75;103334.94;5058782;28;21063;-80
2022/12/05 03:02:48;;;;;;;1.30;0.73;;;;;;;-0.84;69.84;103326.34;5063317;28;20106;-81
2022/12/05 03:05:22;;;;;;;1.63;1.02;;;;;;;-0.82;69.77;103325.69;5066510;28;20835;-80
2022/12/05 03:07:54;;;;;;;1.13;0.60;;;;;;;-0.83;69.85;103329.00;5064468;28;20493;-80
2022/12/05 03:10:24;;;;;;;1.05;0.88;;;;;;;-0.87;70.25;103319.34;5069382;28;20053;-79
2022/12/05 03:12:56;;;;;;;0.88;0.63;;;;;;;-0.84;69.90;103316.09;5054748;28;20049;-81
2022/12/05 03:15:29;;;;;;;1.00;0.63;;;;;;;-0.85;69.71;103302.38;5056640;28;20099;-80
2022/12/05 03:18:03;;;;;;;1.48;1.23;;;;;;;-0.85;70.08;103312.63;5061767;28;20048;-80
2022/12/05 03:20:34;;;;;;;1.70;1.13;;;;;;;-0.84;70.27;103309.28;5064222;28;20053;-80
2022/12/05 03:23:07;;;;;;;2.03;0.82;;;;;;;-0.86;70.38;103297.13;5065121;28;20057;-80
2022/12/05 03:25:41;;;;;;;1.55;0.80;;;;;;;-0.84;70.42;103306.72;5063875;28;20048;-80
2022/12/05 03:28:18;;;;;;;1.60;0.98;;;;;;;-1.02;69.44;103269.53;5064093;28;20044;-80
2022/12/05 03:30:48;;;;;;;1.50;0.80;;;;;;;-0.87;69.69;103283.41;5068798;28;20075;-80
2022/12/05 03:33:20;;;;;;;2.15;0.73;;;;;;;-0.84;69.83;103295.56;5067129;28;20064;-81
2022/12/05 03:35:59;;;;;;;0.95;0.52;;;;;;;-0.90;70.35;103288.31;5072966;28;20048;-80
2022/12/05 03:38:31;;;;;;;2.08;0.88;;;;;;;-0.83;69.58;103297.31;5066213;28;20101;-80
2022/12/05 03:41:06;;;;;;;2.00;1.08;;;;;;;-0.84;70.07;103293.88;5057767;28;20045;-75
2022/12/05 03:43:39;;;;;;;1.73;0.90;;;;;;;-0.88;69.96;103284.19;5058246;28;20187;-75
2022/12/05 03:46:11;;;;;;;1.35;0.80;;;;;;;-0.83;70.02;103297.31;5055345;28;20110;-76
2022/12/05 03:48:50;;;;;;;1.90;0.77;;;;;;;-0.84;69.93;103288.75;5059495;28;20045;-75
2022/12/05 03:51:21;;;;;;;2.05;0.93;;;;;;;-0.84;70.14;103278.47;5063699;28;20059;-75
2022/12/05 03:53:53;;;;;;;2.33;1.00;;;;;;;-0.84;69.95;103288.75;5060917;28;20056;-76
2022/12/05 03:56:24;;;;;;;2.55;1.02;;;;;;;-0.84;69.90;103275.03;5059394;28;20048;-75
2022/12/05 03:58:56;;;;;;;1.92;1.27;;;;;;;-0.84;70.06;103267.34;5059778;28;20049;-69
2022/12/05 04:01:27;;;;;;;2.03;1.08;;;;;;;-0.84;70.32;103260.50;5063828;28;20045;-70
2022/12/05 04:03:57;;;;;;;1.92;1.00;;;;;;;-0.83;70.31;103262.28;5055258;28;20098;-69
2022/12/05 04:06:29;;;;;;;1.77;0.80;;;;;;;-0.80;69.88;103271.88;5063006;28;20526;-70
2022/12/05 04:09:00;;;;;;;2.55;1.23;;;;;;;-0.82;70.28;103264.09;5060894;28;20852;-69
2022/12/05 04:11:33;;;;;;;2.20;0.90;;;;;;;-0.80;69.83;103261.59;5059769;28;20048;-70
2022/12/05 04:14:05;;;;;;;1.52;0.80;;;;;;;-0.78;69.92;103265.19;5060059;28;20041;-69
2022/12/05 04:19:26;;;;;;;1.27;0.75;;;;;;;-0.79;70.20;103254.03;5062493;28;20052;-70
2022/12/05 04:21:54;;;;;;;2.22;1.23;;;;;;;-0.77;70.19;103257.59;5060211;28;20036;-69
2022/12/05 04:27:21;;;;;;;1.38;0.77;;;;;;;-0.75;70.26;103239.72;5063350;28;20060;-70
2022/12/05 04:30:02;;;;;;;2.38;1.00;;;;;;;-0.74;70.54;103250.09;5059654;28;20670;-70
2022/12/05 04:32:38;;;;;;;1.50;0.70;;;;;;;-0.74;70.39;103250.09;5059954;28;20497;-69
2022/12/05 04:35:13;;;;;;;1.23;1.08;;;;;;;-0.73;70.48;103238.16;5059060;28;20093;-70
2022/12/05 04:37:45;;;;;;;1.45;0.70;;;;;;;-0.73;70.09;103249.31;5059057;28;20067;-70
2022/12/05 04:40:18;;;;;;;2.55;0.90;;;;;;;-0.74;70.67;103242.41;5061144;28;20041;-70
2022/12/05 04:42:47;;;;;;;1.58;1.00;;;;;;;-0.73;70.07;103238.16;5061120;28;20122;-70
2022/12/05 04:45:17;;;;;;;2.50;0.80;;;;;;;-0.72;70.54;103239.91;5061285;28;20394;-69
2022/12/05 04:47:51;;;;;;;1.52;0.90;;;;;;;-0.73;69.86;103226.19;5060021;28;20107;-70
2022/12/05 04:50:21;;;;;;;1.65;0.75;;;;;;;-0.74;70.13;103227.00;5061151;28;20053;-70
2022/12/05 04:52:52;;;;;;;2.17;0.85;;;;;;;-0.76;70.52;103233.69;5057827;28;20041;-69
2022/12/05 04:55:24;;;;;;;2.75;1.23;;;;;;;-0.72;70.15;103224.53;5058749;28;20044;-69
2022/12/05 04:58:03;;;;;;;1.33;0.82;;;;;;;-0.73;70.23;103217.63;5056768;28;20128;-70
2022/12/05 05:00:31;;;;;;;1.30;1.00;;;;;;;-0.71;70.67;103229.78;5056807;28;20040;-69
2022/12/05 05:03:04;;;;;;;2.20;0.80;;;;;;;-0.84;70.83;103204.06;5057291;28;20045;-69
2022/12/05 05:05:34;;;;;;;2.13;1.00;;;;;;;-0.76;70.93;103222.56;5058588;28;20571;-69
2022/12/05 05:08:01;;;;;;;2.35;0.90;;;;;;;-0.71;70.98;103234.91;5060891;28;20528;-69
2022/12/05 05:10:34;;;;;;;1.60;0.75;;;;;;;-0.72;70.33;103227.97;5058115;28;20094;-69
2022/12/05 05:13:01;;;;;;;1.33;0.68;;;;;;;-0.70;71.02;103234.09;5056585;28;20114;-69
2022/12/05 05:15:28;;;;;;;1.83;0.80;;;;;;;-0.70;70.49;103226.41;5057248;28;20123;-69
2022/12/05 05:17:54;;;;;;;1.83;0.60;;;;;;;-0.68;70.75;103226.53;5061008;28;20052;-69
2022/12/05 05:20:24;;;;;;;1.67;1.00;;;;;;;-0.68;70.48;103229.97;5056877;28;20133;-69
2022/12/05 05:22:53;;;;;;;1.55;0.90;;;;;;;-0.65;70.97;103225.84;5059042;28;20052;-69
2022/12/05 05:25:20;;;;;;;2.42;0.90;;;;;;;-0.64;70.74;103222.47;5062046;28;20061;-69
2022/12/05 05:27:51;;;;;;;1.23;0.60;;;;;;;-0.64;70.47;103219.91;5060666;28;20990;-69
2022/12/05 05:30:18;;;;;;;1.48;0.80;;;;;;;-0.62;70.47;103215.78;5059084;28;20098;-69
2022/12/05 05:32:45;;;;;;;1.48;0.82;;;;;;;-0.62;70.68;103213.22;5056483;28;20478;-69
2022/12/05 05:35:13;;;;;;;1.70;0.70;;;;;;;-0.60;70.87;103212.50;5056963;28;20041;-69
2022/12/05 05:37:40;;;;;;;1.60;0.77;;;;;;;-0.60;70.96;103215.06;5057505;28;20052;-69
2022/12/05 05:40:12;;;;;;;1.65;0.98;;;;;;;-0.62;70.67;103208.97;5054221;28;20056;-69
2022/12/05 05:42:43;;;;;;;2.03;0.82;;;;;;;-0.57;70.87;103216.94;5051549;28;20053;-69
2022/12/05 05:45:11;;;;;;;2.38;1.13;;;;;;;-0.57;70.69;103219.50;5033989;28;20044;-69
2022/12/05 05:47:37;;;;;;;1.90;0.80;;;;;;;-0.57;70.98;103209.25;5034822;28;20542;-69
2022/12/05 05:50:06;;;;;;;2.45;1.23;;;;;;;-0.57;71.15;103201.53;5038747;28;20045;-70
2022/12/05 05:52:33;;;;;;;2.15;1.02;;;;;;;-0.53;70.75;103200.97;5034755;28;20099;-69
2022/12/05 05:55:00;;;;;;;1.38;0.80;;;;;;;-0.52;70.49;103189.91;5037775;28;20440;-69
2022/12/05 05:57:28;;;;;;;2.60;0.98;;;;;;;-0.51;70.71;103189.13;5038742;28;20053;-69
2022/12/05 05:59:55;;;;;;;1.98;1.30;;;;;;;-0.49;70.75;103192.66;5041392;28;20045;-69
2022/12/05 06:02:22;;;;;;;0.90;0.60;;;;;;;-0.47;70.99;103193.66;5037753;28;20049;-69
2022/12/05 06:04:48;;;;;;;1.45;0.60;;;;;;;-0.47;70.41;103191.09;5035713;28;20102;-70
2022/12/05 06:07:15;;;;;;;1.48;0.75;;;;;;;-0.46;70.88;103192.88;5039945;28;20094;-69
2022/12/05 06:09:42;;;;;;;1.92;0.80;;;;;;;-0.44;70.92;103186.16;5027563;28;20056;-69
2022/12/05 06:12:09;;;;;;;3.92;0.90;;;;;;;-0.43;70.81;103180.22;5033270;28;20056;-70
2022/12/05 06:14:37;;;;;;;1.00;0.70;;;;;;;-0.43;70.96;103171.63;5038275;28;20504;-69
2022/12/05 06:17:04;;;;;;;1.67;0.80;;;;;;;-0.41;71.04;103162.38;5036762;28;20091;-69
2022/12/05 06:19:30;;;;;;;2.67;1.20;;;;;;;-0.41;71.16;103162.38;5036635;28;20095;-69
2022/12/05 06:21:57;;;;;;;1.88;1.10;;;;;;;-0.41;71.00;103158.13;5038119;28;20098;-69
2022/12/05 06:24:24;;;;;;;1.80;1.05;;;;;;;-0.41;71.38;103154.66;5033120;28;20501;-70
2022/12/05 06:26:51;;;;;;;2.28;0.90;;;;;;;-0.38;71.35;103166.00;5033670;28;20464;-70
2022/12/05 06:29:17;;;;;;;1.83;0.95;;;;;;;-0.43;71.45;103162.25;5032586;28;20103;-70
2022/12/05 06:31:46;;;;;;;2.75;1.17;;;;;;;-0.36;71.24;103161.00;5036311;28;20049;-70
2022/12/05 06:34:12;;;;;;;1.75;0.88;;;;;;;-0.36;71.02;103153.28;5038404;28;20143;-69
2022/12/05 06:36:39;;;;;;;2.78;1.55;;;;;;;-0.34;71.14;103160.31;5034796;28;20111;-70
2022/12/05 06:39:06;;;;;;;2.20;1.42;;;;;;;-0.34;70.86;103157.72;5035780;28;20053;-69
2022/12/05 06:41:33;;;;;;;2.72;1.50;;;;;;;-0.33;71.32;103156.94;5037470;28;20103;-69
2022/12/05 06:44:00;;;;;;;2.17;0.95;;;;;;;-0.33;70.99;103159.50;5048700;28;20623;-70
2022/12/05 06:46:27;;;;;;;3.60;1.30;;;;;;;-0.36;70.77;103146.47;5060295;28;20056;-69
2022/12/05 06:48:57;;;;;;;2.83;1.40;;;;;;;-0.33;71.18;103156.94;5057459;28;20049;-69
2022/12/05 06:51:24;;;;;;;3.92;1.13;;;;;;;-0.31;71.00;103157.03;5054774;28;20094;-69
2022/12/05 06:53:51;;;;;;;2.20;0.98;;;;;;;-0.29;70.81;103152.88;5060395;28;20106;-70
2022/12/05 06:56:20;;;;;;;3.80;1.15;;;;;;;-0.30;71.24;103154.56;5061187;28;20099;-70
2022/12/05 06:58:49;;;;;;;3.08;1.20;;;;;;;-0.28;70.91;103149.53;5060217;28;20585;-68
2022/12/05 07:04:05;;;;;;;2.55;1.15;;;;;;;-0.37;71.28;103129.28;5058297;28;20055;-68
2022/12/05 07:06:33;;;;;;;3.72;2.97;;;;;;;-0.30;71.56;103146.84;5061403;28;20045;-68
2022/12/05 07:09:00;;;;;;;3.03;1.10;;;;;;;-0.27;70.75;103152.19;5063646;28;20047;-68
2022/12/05 07:11:27;;;;;;;4.57;1.70;;;;;;;-0.26;71.02;103148.84;5059280;28;20630;-68
2022/12/05 07:13:53;;;;;;;3.95;1.90;;;;;;;-0.26;70.92;103141.13;5063152;28;20048;-68
2022/12/05 07:16:20;;;;;;;4.50;2.13;;;;;;;-0.25;71.31;103136.88;5060726;28;20041;-68
2022/12/05 07:18:47;;;;;;;3.38;1.85;;;;;;;-0.21;71.05;103135.38;5059990;28;20113;-68
2022/12/05 07:21:16;;;;;;;2.70;1.70;;;;;;;-0.21;71.60;103132.81;5060364;28;20553;-68
2022/12/05 07:23:45;;;;;;;2.90;1.50;;;;;;;-0.20;71.14;103130.34;5061736;28;20044;-68
2022/12/05 07:26:14;;;;;;;3.42;1.25;;;;;;;-0.21;71.41;103130.25;5061310;28;20488;-68
2022/12/05 07:28:41;;;;;;;2.22;1.23;;;;;;;-0.17;71.46;103134.78;5059728;28;20091;-68
2022/12/05 07:31:09;;;;;;;1.92;1.00;;;;;;;-0.19;71.16;103127.00;5058669;28;20048;-68
2022/12/05 07:33:37;;;;;;;3.20;1.25;;;;;;;-0.17;70.89;103135.69;5058811;28;20070;-68
2022/12/05 07:36:05;;;;;;;5.32;1.42;;;;;;;-0.16;70.97;103134.00;5062363;28;20053;-68
2022/12/05 07:38:34;;;;;;;3.13;1.20;;;;;;;-0.18;71.08;103133.00;5057084;28;20053;-68
2022/12/05 07:41:04;;;;;;;2.83;1.40;;;;;;;-0.15;70.81;103140.91;5060114;28;20041;-73
2022/12/05 07:43:31;;;;;;;2.40;1.25;;;;;;;-0.13;71.39;103147.03;5059329;28;20040;-74
2022/12/05 07:46:01;;;;;;;2.10;1.02;;;;;;;-0.12;71.07;103143.66;5062276;28;20114;-74
2022/12/05 07:48:28;;;;;;;2.20;1.10;;;;;;;-0.12;71.29;103139.41;5065353;28;20086;-73
2022/12/05 07:50:58;;;;;;;2.00;0.98;;;;;;;-0.15;71.12;103138.34;5061263;28;20048;-75
2022/12/05 07:53:25;;;;;;;2.28;1.40;;;;;;;-0.10;71.05;103148.13;5060392;28;20122;-73
2022/12/05 07:55:53;;;;;;;3.25;0.95;;;;;;;-0.09;71.49;103141.28;5061198;28;20093;-73
2022/12/05 07:58:20;;;;;;;4.55;1.55;;;;;;;-0.08;70.91;103143.97;5061208;28;20064;-73
2022/12/05 08:00:47;;;;;;;5.78;1.77;;;;;;;-0.06;71.73;103150.09;5060395;28;20048;-74
2022/12/05 08:03:13;;;;;;;4.28;1.33;;;;;;;-0.13;71.29;103116.22;5064892;28;20174;-72
2022/12/05 08:05:40;;;;;;;4.25;1.10;;;;;;;-0.05;71.51;103123.63;5059543;28;20049;-73
2022/12/05 08:08:07;;;;;;;2.38;0.90;;;;;;;-0.04;71.13;103127.94;5061850;28;20413;-72
2022/12/05 08:10:34;;;;;;;2.95;1.55;;;;;;;-0.10;71.48;103112.16;5061474;28;20102;-71
2022/12/05 08:13:02;;;;;;;3.13;1.17;;;;;;;-0.02;71.11;103120.34;5059705;28;20110;-70
2022/12/05 08:15:29;;;;;;;3.45;1.27;;;;;;;-0.02;71.33;103118.66;5064046;28;20098;-71
2022/12/05 08:17:56;;;;;;;5.05;1.65;;;;;;;0.00;71.67;103116.19;5063241;28;20049;-71
2022/12/05 08:20:22;;;;;;;1.95;1.08;;;;;;;0.02;71.51;103116.28;5063133;28;20045;-71
2022/12/05 08:22:52;;;;;;;3.17;1.13;;;;;;;-0.07;71.39;103098.63;5057673;28;20041;-73
2022/12/05 08:25:19;;;;;;;2.15;1.02;;;;;;;0.01;70.89;103109.38;5063019;28;20108;-74
2022/12/05 08:27:45;;;;;;;1.50;0.70;;;;;;;-0.06;71.54;103106.44;5060768;28;20055;-74
2022/12/05 08:30:14;;;;;;;1.95;1.15;;;;;;;0.05;71.88;103116.47;5058410;28;20044;-73
2022/12/05 08:32:40;;;;;;;2.70;1.20;;;;;;;0.05;71.18;103117.34;5062540;28;20078;-74
2022/12/05 08:35:08;;;;;;;2.95;1.20;;;;;;;0.08;71.76;103116.66;5061693;28;20056;-74
2022/12/05 08:37:35;;;;;;;1.42;0.77;;;;;;;0.08;71.20;103117.53;5065828;28;20420;-69
2022/12/05 08:40:01;;;;;;;1.88;1.27;;;;;;;0.11;71.36;103106.56;5060948;28;20041;-71
2022/12/05 08:42:28;;;;;;;2.60;1.02;;;;;;;0.11;71.18;103104.88;5063150;28;20487;-70
2022/12/05 08:44:55;;;;;;;2.50;1.15;;;;;;;0.12;71.43;103104.09;5060021;28;20083;-72
2022/12/05 08:47:23;;;;;;;5.57;1.70;;;;;;;0.11;71.56;103096.28;5061412;28;20107;-74
2022/12/05 08:49:50;;;;;;;1.42;0.90;;;;;;;0.15;71.44;103103.41;5058937;28;20052;-67
2022/12/05 08:52:16;;;;;;;2.35;1.27;;;;;;;0.15;71.28;103093.13;5062791;28;20049;-67
2022/12/05 08:54:43;;;;;;;2.15;1.40;;;;;;;0.17;71.21;103092.44;5059078;28;20714;-71
2022/12/05 08:57:10;;;;;;;3.75;1.85;;;;;;;0.19;71.54;103092.50;5061610;28;20439;-69
2022/12/05 08:59:37;;;;;;;5.40;2.17;;;;;;;0.19;71.67;103093.38;5061201;28;20044;-68
2022/12/05 09:02:03;;;;;;;3.97;1.30;;;;;;;0.20;71.26;103087.47;5056677;28;20053;-70
2022/12/05 09:04:31;;;;;;;3.65;1.77;;;;;;;0.21;71.60;103091.81;5055844;28;20404;-68
2022/12/05 09:07:02;;;;;;;4.25;1.75;;;;;;;0.23;71.06;103089.34;5061318;28;20052;-71
2022/12/05 09:09:31;;;;;;;2.72;1.77;;;;;;;0.24;71.81;103087.66;5060290;28;20048;-70
2022/12/05 09:11:59;;;;;;;4.18;1.98;;;;;;;0.22;71.74;103088.44;5056644;28;20040;-70
2022/12/05 09:14:31;;;;;;;5.18;1.67;;;;;;;0.23;71.91;103089.34;5060107;28;20053;-70
2022/12/05 09:16:58;;;;;;;4.93;1.55;;;;;;;0.23;71.73;103081.63;5058424;28;20107;-69
2022/12/05 09:19:26;;;;;;;4.55;1.90;;;;;;;0.24;71.58;103083.41;5064470;28;20048;-68
2022/12/05 09:21:54;;;;;;;3.45;2.42;;;;;;;0.26;71.48;103083.47;5058792;28;20084;-69
2022/12/05 09:24:21;;;;;;;5.90;3.47;;;;;;;0.27;71.72;103075.88;5057280;28;20110;-72
2022/12/05 09:26:48;;;;;;;6.10;2.90;;;;;;;0.28;71.62;103075.06;5062895;28;20067;-69
2022/12/05 09:29:14;;;;;;;5.18;3.53;;;;;;;0.30;71.71;103072.59;5053741;28;20060;-72
2022/12/05 09:31:41;;;;;;;6.28;2.25;;;;;;;0.32;71.90;103071.03;5062445;28;20048;-69
2022/12/05 09:34:09;;;;;;;4.80;2.67;;;;;;;0.33;71.09;103062.50;5059749;28;20041;-69
2022/12/05 09:36:36;;;;;;;6.88;3.20;;;;;;;0.34;71.56;103066.84;5057897;28;20048;-69
2022/12/05 09:39:07;;;;;;;4.05;1.85;;;;;;;0.36;71.32;103052.41;5058782;28;20041;-69
2022/12/05 09:42:04;;;;;;;5.45;1.90;;;;;;;0.31;71.36;103041.81;5059195;28;20045;-69
2022/12/05 09:44:42;;;;;;;3.38;2.28;;;;;;;0.36;71.86;103035.28;5056326;28;20053;-69
2022/12/05 09:47:17;;;;;;;3.95;2.10;;;;;;;0.40;71.77;103041.53;5054519;28;20612;-69
2022/12/05 09:49:50;;;;;;;3.08;1.80;;;;;;;0.41;71.27;103040.72;5055895;28;20076;-71
2022/12/05 09:52:25;;;;;;;4.70;2.45;;;;;;;0.42;71.32;103039.91;5056699;28;20048;-68
2022/12/05 09:54:53;;;;;;;4.13;1.77;;;;;;;0.44;70.96;103040.88;5058984;28;20060;-68
2022/12/05 09:57:29;;;;;;;4.15;2.05;;;;;;;0.45;71.35;103037.50;5058210;28;20045;-71
2022/12/05 09:59:56;;;;;;;3.95;1.88;;;;;;;0.37;71.10;103024.22;5058312;28;20040;-71
2022/12/05 10:02:31;;;;;;;3.97;2.17;;;;;;;0.48;70.97;103034.22;5058162;28;20518;-69
2022/12/05 10:05:03;;;;;;;4.53;1.88;;;;;;;0.48;70.80;103036.81;5057829;28;20048;-71
2022/12/05 10:07:37;;;;;;;4.68;1.77;;;;;;;0.50;71.57;103035.22;5060866;28;20098;-69
2022/12/05 10:10:25;;;;;;;3.38;1.67;;;;;;;0.43;70.80;103023.69;5057675;28;20079;-69
2022/12/05 10:13:14;;;;;;;4.82;1.77;;;;;;;0.52;71.47;103031.94;5058877;28;20047;-69
2022/12/05 10:15:44;;;;;;;3.50;2.17;;;;;;;0.51;71.52;103021.56;5058583;28;20060;-69
2022/12/05 10:18:23;;;;;;;12.88;1.88;;;;;;;0.54;71.25;103024.31;5059236;28;20053;-69
2022/12/05 10:20:52;;;;;;;3.15;1.55;;;;;;;0.53;71.04;103020.84;5055529;28;20063;-69
2022/12/05 10:23:23;;;;;;;3.28;1.83;;;;;;;0.50;71.42;103010.38;5056847;28;20059;-69
2022/12/05 10:25:58;;;;;;;4.10;2.25;;;;;;;0.53;70.92;103005.41;5056945;28;20107;-69
2022/12/05 10:28:32;;;;;;;5.82;2.47;;;;;;;0.55;70.72;103010.66;5061466;28;20050;-69
2022/12/05 10:31:05;;;;;;;8.70;2.88;;;;;;;0.55;71.04;103005.53;5060683;28;20040;-69
2022/12/05 10:33:37;;;;;;;6.63;2.03;;;;;;;0.55;71.09;102997.81;5061345;28;20052;-68
2022/12/05 10:36:11;;;;;;;4.63;2.42;;;;;;;0.54;71.43;103004.66;5062288;28;20098;-69
2022/12/05 10:38:38;;;;;;;9.65;2.60;;;;;;;0.55;71.27;102993.56;5060952;28;20049;-69
2022/12/05 10:41:08;;;;;;;3.97;1.70;;;;;;;0.56;71.71;102990.16;5059782;28;20040;-69
2022/12/05 10:43:37;;;;;;;5.28;2.10;;;;;;;0.47;71.18;102963.03;5060935;28;20400;-69
2022/12/05 10:46:05;;;;;;;3.53;2.20;;;;;;;0.58;71.40;102983.44;5061328;28;20421;-69
2022/12/05 10:48:36;;;;;;;7.10;2.40;;;;;;;0.57;71.16;102984.25;5065962;28;20041;-70
2022/12/05 10:51:04;;;;;;;6.43;3.53;;;;;;;0.56;71.07;102969.59;5059237;28;20041;-69
2022/12/05 10:53:39;;;;;;;6.72;3.67;;;;;;;0.59;71.01;102980.06;5060898;28;20092;-70
2022/12/05 10:56:38;;;;;;;4.60;2.45;;;;;;;0.59;71.20;102980.06;5059438;28;20075;-70
2022/12/05 10:59:06;;;;;;;3.67;1.92;;;;;;;0.60;71.31;102976.72;5061849;28;20090;-70
2022/12/05 11:01:33;;;;;;;3.42;1.98;;;;;;;0.61;71.55;102975.00;5062881;28;20107;-71
2022/12/05 11:04:02;;;;;;;7.72;2.28;;;;;;;0.61;71.47;102964.72;5063531;28;20041;-70
2022/12/05 11:06:31;;;;;;;6.43;2.13;;;;;;;0.62;71.23;102957.09;5060405;28;20127;-69
2022/12/05 11:09:02;;;;;;;3.65;1.63;;;;;;;0.63;71.11;102955.41;5056585;28;20106;-69
2022/12/05 11:11:33;;;;;;;4.00;1.95;;;;;;;0.65;70.91;102953.81;5057957;28;20048;-70
2022/12/05 11:14:02;;;;;;;2.85;1.67;;;;;;;0.65;71.30;102952.13;5062439;28;20045;-69
2022/12/05 11:16:31;;;;;;;4.18;2.03;;;;;;;0.66;71.02;102945.31;5060541;28;20551;-68
2022/12/05 11:19:19;;;;;;;5.97;2.33;;;;;;;0.65;71.38;102933.22;5054878;28;20529;-68
2022/12/05 11:21:46;;;;;;;5.43;3.10;;;;;;;0.70;71.48;102941.22;5061660;28;20049;-68
2022/12/05 11:24:21;;;;;;;5.63;2.13;;;;;;;0.70;71.44;102929.22;5062899;28;20049;-68
2022/12/05 11:26:50;;;;;;;10.02;3.80;;;;;;;0.71;71.16;102924.97;5063419;28;20057;-68
2022/12/05 11:29:33;;;;;;;14.60;6.07;;;;;;;0.72;71.75;102917.34;5059053;28;20056;-68
2022/12/05 11:32:01;;;;;;;7.03;3.58;;;;;;;0.70;71.09;102916.38;5054844;28;20549;-68
2022/12/05 11:34:35;;;;;;;6.38;3.67;;;;;;;0.72;71.22;102913.91;5061850;28;20076;-69
2022/12/05 11:37:09;;;;;;;18.10;6.55;;;;;;;0.73;71.14;102900.22;5062184;28;20450;-68
2022/12/05 11:39:36;;;;;;;39.20;12.23;;;;;;;0.72;71.49;102898.47;5059633;28;20557;-68
2022/12/05 11:42:23;;;;;;;20.85;7.85;;;;;;;0.77;71.86;102897.91;5062874;28;20739;-68
2022/12/05 11:45:11;;;;;;;10.57;4.80;;;;;;;0.75;71.37;102894.38;5059515;28;20499;-68
2022/12/05 11:47:56;;;;;;;5.32;2.33;;;;;;;0.77;70.87;102891.88;5045830;28;20592;-69
2022/12/05 11:50:40;;;;;;;5.38;3.92;;;;;;;0.80;70.97;102889.50;5060719;28;20404;-68